Time;durP1;ratioP1;P1;durP2;ratioP2;P2;SDS_P1;SDS_P2;PMS_P1;PMS_P2;Temp;Humidity;BMP_temperature;BMP_pressure;BME280_temperature;BME280_humidity;BME280_pressure;Samples;Min_cycle;Max_cycle;Signal;HPM_P1;HPM_P2
2022/01/30 00:02:18;;;;;;;30.20;5.28;;;;;;;5.12;78.49;102656.41;5031701;28;20399;-66
2022/01/30 00:04:44;;;;;;;31.92;6.22;;;;;;;5.10;78.28;102665.28;5027638;28;20022;-66
2022/01/30 00:07:09;;;;;;;28.98;6.20;;;;;;;5.07;78.54;102668.81;5023654;28;20415;-66
2022/01/30 00:09:34;;;;;;;25.50;5.50;;;;;;;5.04;78.74;102668.03;5049786;28;20071;-66
2022/01/30 00:12:02;;;;;;;35.22;5.30;;;;;;;5.02;78.58;102683.88;5051450;28;20025;-66
2022/01/30 00:14:31;;;;;;;28.42;7.30;;;;;;;4.98;78.42;102684.88;5042699;28;20545;-66
2022/01/30 00:17:19;;;;;;;29.92;7.25;;;;;;;4.95;78.38;102677.03;5051841;28;20083;-65
2022/01/30 00:19:49;;;;;;;29.10;6.68;;;;;;;4.92;78.63;102683.22;5051286;28;20025;-66
2022/01/30 00:22:36;;;;;;;27.13;6.20;;;;;;;4.88;78.74;102678.94;5051388;28;20032;-66
2022/01/30 00:25:07;;;;;;;28.38;6.30;;;;;;;4.85;79.08;102686.91;5023236;28;20116;-67
2022/01/30 00:27:45;;;;;;;26.40;5.60;;;;;;;4.82;78.96;102679.94;5027210;28;20060;-66
2022/01/30 00:30:14;;;;;;;30.38;5.63;;;;;;;4.79;78.51;102687.03;5079622;28;20086;-66
2022/01/30 00:32:39;;;;;;;32.08;6.57;;;;;;;4.76;78.93;102692.38;5051280;28;20068;-67
2022/01/30 00:35:05;;;;;;;26.33;5.30;;;;;;;4.72;78.57;102701.25;5034874;28;20067;-66
2022/01/30 00:37:30;;;;;;;28.98;5.72;;;;;;;4.68;78.88;102703.09;5040989;28;20087;-66
2022/01/30 00:39:55;;;;;;;33.67;6.45;;;;;;;4.67;78.94;102698.72;5044898;28;20056;-66
2022/01/30 00:42:22;;;;;;;27.65;6.47;;;;;;;4.66;78.77;102698.75;5034924;28;20037;-66
2022/01/30 00:44:47;;;;;;;27.60;5.78;;;;;;;4.62;78.95;102701.44;5025214;28;20491;-66
2022/01/30 00:47:13;;;;;;;26.63;6.15;;;;;;;4.60;78.89;102697.97;5050783;28;20032;-66
2022/01/30 00:49:38;;;;;;;29.35;6.25;;;;;;;4.57;79.01;102689.28;5038089;28;20467;-66
2022/01/30 00:52:04;;;;;;;35.75;10.05;;;;;;;4.56;79.16;102692.81;5044781;28;20029;-65
2022/01/30 00:54:29;;;;;;;33.53;9.25;;;;;;;4.55;78.84;102699.00;5040733;28;20071;-65
2022/01/30 00:56:54;;;;;;;34.10;7.88;;;;;;;4.52;79.04;102702.53;5048704;28;20462;-66
2022/01/30 00:59:19;;;;;;;30.52;8.00;;;;;;;4.50;79.59;102699.09;5026367;28;20076;-65
2022/01/30 01:01:45;;;;;;;35.38;10.32;;;;;;;4.49;79.23;102699.13;5050488;28;20031;-64
2022/01/30 01:04:10;;;;;;;33.92;9.73;;;;;;;4.47;79.25;102706.19;5040568;28;20048;-66
2022/01/30 01:06:37;;;;;;;35.45;10.25;;;;;;;4.44;79.40;102710.59;5026116;28;20404;-66
2022/01/30 01:09:04;;;;;;;37.63;9.45;;;;;;;4.42;79.77;102712.38;5041584;28;20025;-66
2022/01/30 01:24:56;;;;;;;29.42;6.85;;;;;;;4.36;80.35;102717.75;5026304;28;20406;-66
2022/01/30 01:27:21;;;;;;;24.65;5.68;;;;;;;4.37;80.37;102732.66;5050742;28;20029;-66
2022/01/30 01:29:46;;;;;;;23.70;6.10;;;;;;;4.36;80.73;102724.81;5049501;28;20021;-66
2022/01/30 01:32:12;;;;;;;31.88;7.57;;;;;;;4.35;80.71;102728.34;5036919;28;20528;-66
2022/01/30 01:34:39;;;;;;;35.38;7.50;;;;;;;4.34;80.43;102731.88;5044203;28;20036;-65
2022/01/30 01:37:09;;;;;;;33.70;7.53;;;;;;;4.33;80.36;102727.50;5050377;28;20040;-66
2022/01/30 01:39:34;;;;;;;33.90;6.25;;;;;;;4.31;80.13;102732.78;5050419;28;20020;-66
2022/01/30 01:41:59;;;;;;;32.10;5.72;;;;;;;4.29;80.62;102729.31;5032110;28;20383;-66
2022/01/30 01:44:34;;;;;;;29.55;5.47;;;;;;;4.26;80.35;102727.63;5037864;28;20039;-66
2022/01/30 01:47:00;;;;;;;28.75;5.32;;;;;;;4.23;80.67;102732.06;5049976;28;20039;-66
2022/01/30 01:49:29;;;;;;;26.17;6.63;;;;;;;4.19;80.82;102733.88;5040029;28;20577;-65
2022/01/30 01:52:18;;;;;;;;;;;;;;;4.25;80.53;102740.81;5050605;28;20040;-65
2022/01/30 01:54:45;;;;;;;29.25;5.43;;;;;;;4.16;80.59;102738.34;5025568;28;20460;-66
2022/01/30 01:57:11;;;;;;;34.63;5.60;;;;;;;4.12;80.56;102737.53;5047906;28;20065;-66
2022/01/30 01:59:36;;;;;;;28.05;6.20;;;;;;;4.11;80.88;102743.69;5034151;28;20506;-66
2022/01/30 02:02:03;;;;;;;23.85;5.15;;;;;;;4.08;80.99;102741.16;5033924;28;20034;-66
2022/01/30 02:04:28;;;;;;;28.75;6.07;;;;;;;4.07;81.29;102736.78;5037705;28;20482;-66
2022/01/30 02:07:22;;;;;;;29.30;6.45;;;;;;;4.05;81.20;102739.41;5043884;28;20046;-66
2022/01/30 02:09:45;;;;;;;28.98;6.10;;;;;;;4.04;81.25;102734.19;5039515;28;20045;-66
2022/01/30 02:12:17;;;;;;;31.38;6.40;;;;;;;4.03;81.53;102728.06;5039254;28;20025;-66
2022/01/30 02:25:42;;;;;;;29.88;5.45;;;;;;;4.01;81.89;102715.84;5034348;28;20040;-67
2022/01/30 02:28:14;;;;;;;31.80;5.82;;;;;;;4.01;82.05;102721.09;5053303;28;20032;-66
2022/01/30 02:30:46;;;;;;;31.73;5.63;;;;;;;3.99;82.28;102726.38;5046531;28;20033;-66
2022/01/30 02:33:11;;;;;;;31.23;5.90;;;;;;;3.98;82.24;102729.94;5053500;28;20108;-66
2022/01/30 02:35:37;;;;;;;20.30;4.68;;;;;;;3.97;82.27;102728.19;5053382;28;20107;-66
2022/01/30 02:38:02;;;;;;;30.95;5.35;;;;;;;3.95;82.20;102729.97;5035533;28;20037;-66
2022/01/30 02:40:31;;;;;;;33.58;5.82;;;;;;;3.92;82.10;102727.41;5041104;28;20017;-66
2022/01/30 02:42:56;;;;;;;30.23;6.10;;;;;;;3.89;81.97;102719.56;5031067;28;20479;-65
2022/01/30 02:45:25;;;;;;;30.40;5.70;;;;;;;3.86;81.95;102717.88;5032422;28;20025;-66
2022/01/30 02:50:38;;;;;;;22.67;4.88;;;;;;;3.78;82.18;102725.03;5033028;28;20037;-66
2022/01/30 02:53:07;;;;;;;;;;;;;;;3.81;81.87;102711.81;5036578;28;20405;-66
2022/01/30 02:55:32;;;;;;;30.85;5.07;;;;;;;3.73;82.05;102724.25;5053581;28;19909;-66
2022/01/30 02:57:57;;;;;;;24.90;4.82;;;;;;;3.69;82.17;102725.19;5051211;28;20025;-66
2022/01/30 03:00:23;;;;;;;25.95;5.30;;;;;;;3.65;82.27;102734.03;5030878;28;20026;-66
2022/01/30 03:02:49;;;;;;;26.38;4.50;;;;;;;3.62;82.24;102734.94;5032099;28;20048;-66
2022/01/30 03:05:14;;;;;;;24.67;5.00;;;;;;;3.60;82.61;102736.72;5033649;28;20044;-67
2022/01/30 03:07:39;;;;;;;26.67;5.82;;;;;;;3.59;82.68;102745.50;5051731;28;20017;-67
2022/01/30 03:10:05;;;;;;;24.77;5.30;;;;;;;3.57;82.66;102744.66;5041646;28;20041;-67
2022/01/30 03:12:30;;;;;;;23.77;6.10;;;;;;;3.56;82.67;102749.94;5052364;28;20394;-67
2022/01/30 03:14:56;;;;;;;21.65;5.38;;;;;;;3.53;83.07;102756.13;5040052;28;20033;-66
2022/01/30 03:17:21;;;;;;;30.13;5.38;;;;;;;3.50;82.90;102751.78;5032534;28;20029;-66
2022/01/30 03:19:46;;;;;;;28.65;6.15;;;;;;;3.50;82.90;102758.78;5032694;28;20029;-67
2022/01/30 03:22:12;;;;;;;28.27;5.93;;;;;;;3.49;83.26;102757.91;5045755;28;20028;-66
2022/01/30 03:24:37;;;;;;;28.25;5.43;;;;;;;3.50;83.51;102761.41;5031169;28;20431;-67
2022/01/30 03:27:09;;;;;;;23.88;5.30;;;;;;;3.49;83.69;102764.94;5052242;28;20025;-66
2022/01/30 03:29:36;;;;;;;24.23;4.85;;;;;;;3.50;83.99;102761.41;5014838;28;20024;-67
2022/01/30 03:32:02;;;;;;;31.02;5.57;;;;;;;3.51;83.99;102769.28;5037833;28;20104;-66
2022/01/30 03:34:27;;;;;;;32.10;6.90;;;;;;;3.52;84.28;102771.00;5052157;28;20530;-67
2022/01/30 03:36:53;;;;;;;32.45;5.53;;;;;;;3.51;84.45;102774.53;5034686;28;20045;-67
2022/01/30 03:39:18;;;;;;;31.27;5.47;;;;;;;3.54;84.79;102783.25;5052092;28;20375;-67
2022/01/30 03:41:44;;;;;;;24.33;5.32;;;;;;;3.54;84.68;102791.13;5045283;28;20107;-67
2022/01/30 03:44:09;;;;;;;29.35;5.55;;;;;;;3.56;84.77;102798.09;5038765;28;20549;-67
2022/01/30 03:46:34;;;;;;;30.15;6.18;;;;;;;3.57;84.92;102799.84;5049400;28;20031;-67
2022/01/30 03:48:59;;;;;;;27.50;6.00;;;;;;;3.59;85.01;102803.28;5041365;28;20029;-67
2022/01/30 03:51:25;;;;;;;28.85;5.32;;;;;;;3.60;84.96;102805.03;5031661;28;20018;-68
2022/01/30 03:53:50;;;;;;;29.83;5.88;;;;;;;3.62;85.10;102805.03;5039644;28;20033;-67
2022/01/30 03:56:15;;;;;;;32.50;6.18;;;;;;;3.65;85.08;102808.47;5031748;28;20292;-67
2022/01/30 03:58:41;;;;;;;30.38;6.30;;;;;;;3.66;85.22;102806.69;5051186;28;20436;-67
2022/01/30 04:01:06;;;;;;;26.42;5.35;;;;;;;3.70;84.90;102816.28;5040300;28;20028;-68
2022/01/30 04:03:32;;;;;;;29.05;5.25;;;;;;;3.72;84.82;102818.88;5020435;28;20065;-67
2022/01/30 04:05:57;;;;;;;35.10;5.75;;;;;;;3.74;84.73;102817.09;5040680;28;20052;-68
2022/01/30 04:08:23;;;;;;;29.40;5.53;;;;;;;3.74;84.96;102815.31;5051365;28;20035;-67
2022/01/30 04:10:48;;;;;;;22.40;5.40;;;;;;;3.77;84.78;102814.41;5036684;28;20033;-67
2022/01/30 04:13:14;;;;;;;29.67;5.40;;;;;;;3.79;85.01;102820.50;5051647;28;20524;-67
2022/01/30 04:15:39;;;;;;;31.17;5.80;;;;;;;3.79;84.88;102821.38;5051698;28;20090;-67
2022/01/30 04:18:05;;;;;;;26.98;5.43;;;;;;;3.83;84.61;102832.69;5044838;28;20072;-67
2022/01/30 04:20:31;;;;;;;24.20;4.63;;;;;;;3.84;84.64;102826.56;5048173;28;20044;-67
2022/01/30 04:22:56;;;;;;;25.65;4.75;;;;;;;3.86;84.33;102830.91;5030501;28;20104;-67
2022/01/30 04:25:22;;;;;;;26.17;5.13;;;;;;;3.88;84.40;102822.97;5046146;28;20122;-67
2022/01/30 04:27:48;;;;;;;27.70;5.55;;;;;;;3.91;84.05;102827.31;5051111;28;20035;-67
2022/01/30 04:30:14;;;;;;;27.27;5.38;;;;;;;3.93;84.00;102833.41;5039793;28;20022;-68
2022/01/30 04:32:42;;;;;;;30.65;5.07;;;;;;;3.95;83.81;102831.66;5046220;28;20526;-67
2022/01/30 04:35:14;;;;;;;27.33;5.40;;;;;;;3.97;83.86;102829.84;5050954;28;20511;-67
2022/01/30 05:06:53;;;;;;;28.65;5.00;;;;;;;4.10;82.20;102862.06;5050452;28;20479;-67
2022/01/30 05:09:14;;;;;;;25.50;4.65;;;;;;;4.07;82.36;102865.63;5036111;28;20037;-66
2022/01/30 05:11:40;;;;;;;19.42;4.75;;;;;;;4.06;82.02;102866.50;5045893;28;20067;-66
2022/01/30 05:14:05;;;;;;;25.08;5.35;;;;;;;4.02;82.11;102867.47;5036658;28;20040;-67
2022/01/30 05:16:33;;;;;;;28.33;4.90;;;;;;;4.01;81.69;102878.84;5038828;28;20041;-67
2022/01/30 05:18:59;;;;;;;25.00;5.05;;;;;;;3.97;82.06;102875.41;5047297;28;20033;-66
2022/01/30 05:21:24;;;;;;;24.33;4.45;;;;;;;3.95;82.13;102878.97;5037653;28;20123;-66
2022/01/30 05:23:50;;;;;;;20.42;4.57;;;;;;;3.92;81.99;102879.88;5044985;28;20021;-66
2022/01/30 05:26:15;;;;;;;27.13;4.63;;;;;;;3.89;81.91;102872.91;5043448;28;20018;-66
2022/01/30 05:28:41;;;;;;;30.90;5.68;;;;;;;3.85;82.05;102876.47;5029812;28;20148;-65
2022/01/30 05:31:06;;;;;;;24.30;4.60;;;;;;;3.82;81.98;102878.28;5037279;28;20040;-67
2022/01/30 05:33:32;;;;;;;24.67;4.85;;;;;;;3.77;81.84;102874.88;5039853;28;20029;-66
2022/01/30 05:35:57;;;;;;;21.95;4.63;;;;;;;3.73;82.15;102881.06;5019259;28;20096;-66
2022/01/30 05:38:23;;;;;;;27.48;4.95;;;;;;;3.70;81.95;102869.69;5049999;28;20063;-66
2022/01/30 05:40:49;;;;;;;22.25;4.57;;;;;;;3.67;81.88;102877.63;5046702;28;20040;-66
2022/01/30 05:43:14;;;;;;;25.08;4.82;;;;;;;3.66;81.96;102875.00;5036426;28;20028;-66
2022/01/30 05:45:46;;;;;;;18.30;4.28;;;;;;;3.63;81.68;102886.47;5050079;28;20095;-65
2022/01/30 05:48:15;;;;;;;27.13;5.15;;;;;;;3.60;81.99;102891.75;5050199;28;20062;-66
2022/01/30 05:50:42;;;;;;;27.23;4.43;;;;;;;3.59;81.72;102886.53;5031082;28;20030;-65
2022/01/30 05:53:09;;;;;;;29.75;5.03;;;;;;;3.58;81.35;102890.91;5044040;28;20025;-65
2022/01/30 05:55:34;;;;;;;27.60;4.22;;;;;;;3.55;81.22;102895.31;5021762;28;20033;-66
2022/01/30 05:58:00;;;;;;;23.33;4.53;;;;;;;3.54;81.42;102893.59;5044054;28;20029;-66
2022/01/30 06:00:26;;;;;;;20.13;4.07;;;;;;;3.51;81.53;102891.88;5050029;28;20083;-66
2022/01/30 06:02:51;;;;;;;18.27;3.72;;;;;;;3.49;81.21;102888.41;5049891;28;20082;-66
2022/01/30 06:05:19;;;;;;;22.20;4.10;;;;;;;3.47;81.53;102904.19;5030932;28;20573;-66
2022/01/30 06:07:51;;;;;;;20.88;4.22;;;;;;;3.45;81.33;102902.50;5043373;28;20070;-66
2022/01/30 06:10:21;;;;;;;26.95;4.65;;;;;;;3.42;81.33;102903.38;5016600;28;20048;-66
2022/01/30 06:12:46;;;;;;;19.80;3.55;;;;;;;3.40;81.28;102905.16;5030045;28;20033;-66
2022/01/30 06:15:13;;;;;;;27.75;4.82;;;;;;;3.38;81.27;102914.84;5048142;28;20389;-65
2022/01/30 06:17:38;;;;;;;20.45;4.00;;;;;;;3.37;81.55;102906.97;5046140;28;20033;-66
2022/01/30 06:20:04;;;;;;;23.65;4.60;;;;;;;3.34;81.57;102908.72;5029550;28;20021;-66
2022/01/30 06:22:30;;;;;;;24.25;4.65;;;;;;;3.33;81.56;102906.13;5039823;28;20441;-66
2022/01/30 06:24:55;;;;;;;29.33;3.65;;;;;;;3.33;81.50;102909.63;5030515;28;20026;-66
2022/01/30 06:27:20;;;;;;;21.73;4.13;;;;;;;3.32;81.83;102902.63;5035550;28;20028;-65
2022/01/30 06:29:46;;;;;;;24.55;4.40;;;;;;;3.36;82.00;102905.22;5031393;28;20041;-66
2022/01/30 06:32:11;;;;;;;18.65;4.18;;;;;;;3.39;81.75;102900.78;5027772;28;20029;-66
2022/01/30 06:34:36;;;;;;;22.30;5.00;;;;;;;3.42;81.63;102903.38;5035696;28;20041;-66
2022/01/30 06:37:02;;;;;;;26.13;4.93;;;;;;;3.44;81.91;102906.84;5049721;28;20421;-67
2022/01/30 06:39:27;;;;;;;22.63;4.03;;;;;;;3.47;81.73;102906.81;5049498;28;20036;-67
2022/01/30 06:41:53;;;;;;;22.73;4.18;;;;;;;3.50;81.75;102912.03;5050631;28;20029;-67
2022/01/30 06:44:18;;;;;;;26.92;4.10;;;;;;;3.50;81.66;102914.66;5048285;28;20049;-67
2022/01/30 06:46:43;;;;;;;18.02;3.80;;;;;;;3.52;81.31;102918.13;5053101;28;20025;-67
2022/01/30 06:49:09;;;;;;;24.77;4.35;;;;;;;3.56;81.24;102912.84;5029076;28;20033;-67
2022/01/30 06:51:34;;;;;;;22.60;4.78;;;;;;;3.57;81.44;102917.22;5039302;28;20518;-67
2022/01/30 06:53:59;;;;;;;24.67;4.07;;;;;;;3.58;81.67;102921.56;5040986;28;20017;-67
2022/01/30 06:56:24;;;;;;;23.73;4.03;;;;;;;3.58;81.95;102924.19;5045027;28;20037;-67
2022/01/30 06:58:53;;;;;;;20.75;4.35;;;;;;;3.58;82.41;102926.81;5032784;28;20040;-67
2022/01/30 07:01:18;;;;;;;21.15;4.53;;;;;;;3.60;82.13;102932.94;5031784;28;20038;-66
2022/01/30 07:03:43;;;;;;;23.40;3.78;;;;;;;3.60;82.14;102930.31;5040905;28;20021;-67
2022/01/30 07:06:09;;;;;;;29.13;4.40;;;;;;;3.59;82.09;102933.81;5052789;28;20053;-67
2022/01/30 07:08:34;;;;;;;21.65;4.22;;;;;;;3.57;81.90;102939.09;5033021;28;20040;-66
2022/01/30 07:10:59;;;;;;;16.30;4.10;;;;;;;3.54;81.97;102941.75;5047016;28;20347;-65
2022/01/30 07:13:24;;;;;;;21.58;4.43;;;;;;;3.54;81.66;102944.38;5050804;28;20025;-65
2022/01/30 07:15:50;;;;;;;21.05;4.47;;;;;;;3.52;81.69;102940.91;5052203;28;20040;-66
2022/01/30 07:18:15;;;;;;;24.38;4.30;;;;;;;3.51;81.65;102942.69;5033856;28;20027;-66
2022/01/30 07:20:40;;;;;;;23.02;4.22;;;;;;;3.47;81.50;102950.63;5034118;28;20052;-66
2022/01/30 07:23:05;;;;;;;24.00;4.40;;;;;;;3.45;81.55;102947.16;5041390;28;20551;-65
2022/01/30 07:25:31;;;;;;;19.25;5.30;;;;;;;3.43;81.49;102954.16;5037972;28;20044;-66
2022/01/30 07:27:56;;;;;;;18.45;4.47;;;;;;;3.41;81.29;102956.78;5030910;28;20037;-66
2022/01/30 07:30:21;;;;;;;17.45;4.03;;;;;;;3.39;81.44;102952.47;5020048;28;20037;-65
2022/01/30 07:32:46;;;;;;;25.27;3.95;;;;;;;3.38;81.36;102956.88;5016124;28;20030;-65
2022/01/30 07:35:12;;;;;;;22.48;4.85;;;;;;;3.36;81.51;102953.34;5019923;28;20065;-65
2022/01/30 07:37:37;;;;;;;24.60;3.90;;;;;;;3.33;81.12;102969.16;5048996;28;20123;-65
2022/01/30 07:40:04;;;;;;;20.15;4.50;;;;;;;3.30;81.42;102975.34;5043506;28;20045;-65
2022/01/30 07:42:29;;;;;;;23.15;4.25;;;;;;;3.27;81.48;102975.38;5047320;28;20407;-65
2022/01/30 07:44:55;;;;;;;20.98;4.30;;;;;;;3.23;81.32;102984.19;5046778;28;20037;-65
2022/01/30 07:47:22;;;;;;;20.30;4.05;;;;;;;3.21;81.42;102988.56;5017812;28;20034;-65
2022/01/30 07:49:51;;;;;;;15.27;3.75;;;;;;;3.20;81.71;102997.34;5014615;28;20091;-65
2022/01/30 07:52:17;;;;;;;;;;;;;;;3.25;81.91;102995.53;5014314;28;20380;-65
2022/01/30 07:54:42;;;;;;;19.67;4.00;;;;;;;3.15;81.79;102986.88;5016070;28;19912;-66
2022/01/30 07:57:07;;;;;;;20.08;4.55;;;;;;;3.14;81.90;102984.25;5012518;28;20105;-66
2022/01/30 07:59:32;;;;;;;24.35;3.97;;;;;;;3.11;82.02;102982.56;5012435;28;20026;-66
2022/01/30 08:01:58;;;;;;;21.95;4.15;;;;;;;3.10;82.16;102986.06;5012290;28;20065;-66
2022/01/30 08:04:23;;;;;;;20.10;3.92;;;;;;;3.08;82.19;102985.22;5010493;28;20037;-66
2022/01/30 08:06:48;;;;;;;23.65;4.15;;;;;;;3.07;82.09;102980.84;5021657;28;20049;-67
2022/01/30 08:09:14;;;;;;;23.90;4.13;;;;;;;3.07;82.08;102982.59;5017144;28;20113;-68
2022/01/30 08:11:39;;;;;;;23.90;4.32;;;;;;;3.07;82.40;102995.72;5043894;28;20041;-67
2022/01/30 08:14:04;;;;;;;21.88;4.40;;;;;;;3.06;82.45;102994.84;5050539;28;20024;-67
2022/01/30 08:16:29;;;;;;;22.52;3.97;;;;;;;3.08;82.41;102993.09;5044178;28;20045;-67
2022/01/30 08:18:55;;;;;;;23.23;4.65;;;;;;;3.07;82.33;102996.59;5016845;28;20072;-65
2022/01/30 08:21:20;;;;;;;19.35;4.93;;;;;;;3.09;82.31;103001.81;5010960;28;20042;-65
2022/01/30 08:23:45;;;;;;;19.42;4.70;;;;;;;3.09;82.39;102997.44;5010486;28;20037;-65
2022/01/30 08:26:11;;;;;;;21.00;5.18;;;;;;;3.13;81.58;103001.78;5011907;28;20113;-66
2022/01/30 08:28:36;;;;;;;23.27;4.57;;;;;;;3.16;82.03;103000.88;5014763;28;20117;-66
2022/01/30 08:31:01;;;;;;;23.75;4.25;;;;;;;3.21;81.58;103006.06;5047265;28;20092;-66
2022/01/30 08:33:26;;;;;;;26.45;4.30;;;;;;;3.25;81.70;103008.66;5014722;28;20026;-66
2022/01/30 08:35:52;;;;;;;22.70;4.25;;;;;;;3.32;81.57;103009.47;5059035;28;20124;-66
2022/01/30 08:38:18;;;;;;;21.13;4.93;;;;;;;3.42;81.95;103008.47;5034066;28;20030;-66
2022/01/30 08:40:47;;;;;;;16.35;3.78;;;;;;;3.50;81.99;103009.25;5025380;28;20041;-67
2022/01/30 08:43:13;;;;;;;23.40;4.95;;;;;;;3.59;81.46;103018.75;5015384;28;20038;-66
2022/01/30 08:45:38;;;;;;;17.40;3.95;;;;;;;3.67;80.77;103009.03;5018080;28;20042;-66
2022/01/30 08:48:04;;;;;;;22.40;4.55;;;;;;;3.74;81.21;103006.31;5012282;28;20041;-67
2022/01/30 08:50:29;;;;;;;20.45;4.10;;;;;;;3.78;80.46;103008.91;5020396;28;20026;-67
2022/01/30 08:52:54;;;;;;;25.65;5.05;;;;;;;3.84;80.77;103015.81;5046092;28;20029;-67
2022/01/30 08:55:20;;;;;;;23.58;4.82;;;;;;;3.93;80.28;103009.56;5023260;28;20023;-67
2022/01/30 08:57:46;;;;;;;22.50;4.20;;;;;;;4.01;80.67;103015.59;5034410;28;20036;-67
2022/01/30 09:00:13;;;;;;;23.40;4.93;;;;;;;4.11;80.61;103009.31;5029001;28;20029;-67
2022/01/30 09:02:39;;;;;;;23.63;4.60;;;;;;;4.17;80.73;103000.47;5033203;28;20029;-69
2022/01/30 09:05:06;;;;;;;23.38;4.63;;;;;;;4.22;79.84;103006.53;5031543;28;20112;-66
2022/01/30 09:07:31;;;;;;;29.55;4.75;;;;;;;4.28;79.39;103009.06;5051432;28;20390;-66
2022/01/30 09:09:57;;;;;;;25.00;5.43;;;;;;;4.32;79.43;103015.16;5050560;28;20029;-66
2022/01/30 09:12:24;;;;;;;18.17;4.70;;;;;;;4.37;79.38;103021.22;5021857;28;20396;-66
2022/01/30 09:14:49;;;;;;;24.73;4.50;;;;;;;4.42;79.24;103022.88;5030099;28;20090;-66
2022/01/30 09:17:16;;;;;;;27.42;4.50;;;;;;;4.47;78.76;103030.69;5038968;28;20037;-69
2022/01/30 09:19:46;;;;;;;29.40;4.95;;;;;;;4.54;78.47;103042.00;5018806;28;20329;-67
2022/01/30 09:22:13;;;;;;;25.30;5.03;;;;;;;4.57;77.39;103039.31;5004120;28;20037;-67
2022/01/30 09:24:39;;;;;;;17.70;4.80;;;;;;;4.64;78.60;103046.19;5029456;28;20475;-67
2022/01/30 09:27:05;;;;;;;26.88;4.93;;;;;;;4.73;78.45;103040.81;5021354;28;20041;-67
2022/01/30 09:29:31;;;;;;;24.40;5.50;;;;;;;4.84;78.98;103037.13;5043288;28;20438;-67
2022/01/30 09:31:57;;;;;;;22.20;4.93;;;;;;;4.94;77.23;103044.81;5041078;28;20033;-67
2022/01/30 09:34:23;;;;;;;20.45;5.00;;;;;;;5.03;77.39;103045.53;5020115;28;20060;-67
2022/01/30 09:36:48;;;;;;;24.85;4.70;;;;;;;5.10;76.12;103037.53;5027797;28;20042;-67
2022/01/30 09:39:13;;;;;;;26.27;5.25;;;;;;;5.20;76.85;103051.41;5028660;28;20112;-67
2022/01/30 09:41:42;;;;;;;28.85;5.57;;;;;;;5.25;75.79;103061.84;5029969;28;20017;-67
2022/01/30 09:44:09;;;;;;;25.73;4.88;;;;;;;5.30;75.10;103060.00;5029486;28;20402;-67
2022/01/30 09:46:39;;;;;;;25.48;4.68;;;;;;;5.34;75.39;103057.25;5042597;28;20029;-67
2022/01/30 09:49:06;;;;;;;;;;;;;;;5.42;77.32;103066.81;5032107;28;20104;-67
2022/01/30 09:51:31;;;;;;;27.63;5.07;;;;;;;5.46;74.99;103058.81;5027201;28;20678;-67
2022/01/30 09:53:56;;;;;;;24.58;4.50;;;;;;;5.50;73.34;103068.38;5035601;28;20030;-67
2022/01/30 09:56:22;;;;;;;25.70;5.85;;;;;;;5.57;73.60;103066.50;5017115;28;20029;-67
2022/01/30 09:58:47;;;;;;;26.83;4.72;;;;;;;5.64;73.32;103054.91;5025582;28;20030;-67
2022/01/30 10:01:12;;;;;;;25.02;5.15;;;;;;;5.72;73.02;103063.53;5031249;28;20025;-67
2022/01/30 10:03:37;;;;;;;27.27;4.82;;;;;;;5.75;72.12;103068.75;5028475;28;20100;-67
2022/01/30 10:06:09;;;;;;;26.23;5.07;;;;;;;5.80;73.73;103070.44;5022313;28;20040;-67
2022/01/30 10:08:42;;;;;;;21.40;5.40;;;;;;;5.87;73.68;103069.41;5031438;28;20083;-68
2022/01/30 10:11:27;;;;;;;24.23;4.68;;;;;;;5.98;72.39;103071.84;5039370;28;20029;-68
2022/01/30 10:14:03;;;;;;;24.30;5.03;;;;;;;6.05;72.60;103087.50;5027783;28;20049;-68
2022/01/30 10:16:28;;;;;;;33.15;5.20;;;;;;;6.14;72.45;103090.84;5031508;28;20587;-67
2022/01/30 10:18:53;;;;;;;26.45;4.95;;;;;;;6.18;71.75;103092.50;5032400;28;20113;-67
2022/01/30 10:21:20;;;;;;;23.65;5.10;;;;;;;6.27;72.04;103094.97;5033975;28;20041;-67
2022/01/30 10:23:45;;;;;;;31.70;5.43;;;;;;;6.41;72.43;103092.88;5025765;28;20029;-67
2022/01/30 10:26:18;;;;;;;28.80;5.57;;;;;;;6.45;70.93;103091.91;5051911;28;20390;-67
2022/01/30 10:28:43;;;;;;;28.63;5.40;;;;;;;6.50;70.71;103088.31;5050332;28;20422;-67
2022/01/30 10:31:09;;;;;;;20.00;4.53;;;;;;;6.61;71.54;103095.06;5033379;28;20037;-67
2022/01/30 10:33:45;;;;;;;21.88;5.00;;;;;;;6.73;70.93;103087.72;5048404;28;20111;-67
2022/01/30 10:36:13;;;;;;;25.98;5.35;;;;;;;6.81;69.68;103085.75;5053358;28;20033;-68
2022/01/30 10:38:41;;;;;;;29.08;5.63;;;;;;;6.90;70.95;103085.56;5041877;28;20529;-67
2022/01/30 10:41:14;;;;;;;27.10;5.25;;;;;;;6.99;70.14;103084.44;5050923;28;20112;-68
2022/01/30 10:43:58;;;;;;;34.38;5.47;;;;;;;7.04;70.30;103083.44;5053197;28;20240;-67
2022/01/30 10:46:25;;;;;;;27.42;4.82;;;;;;;7.08;68.88;103086.88;5052892;28;20025;-67
2022/01/30 10:49:11;;;;;;;33.45;5.88;;;;;;;7.14;69.47;103084.03;5033008;28;20033;-67
2022/01/30 10:51:36;;;;;;;27.23;4.50;;;;;;;7.15;67.74;103077.84;5028739;28;20526;-65
2022/01/30 10:54:08;;;;;;;23.27;5.43;;;;;;;7.22;68.63;103084.69;5045351;28;20060;-66
2022/01/30 10:56:33;;;;;;;31.30;5.82;;;;;;;7.29;68.73;103084.56;5049436;28;20028;-66
2022/01/30 10:59:16;;;;;;;32.20;5.70;;;;;;;7.35;69.86;103079.97;5029475;28;20025;-66
2022/01/30 11:01:46;;;;;;;26.63;5.22;;;;;;;7.39;67.74;103086.03;5042232;28;20503;-65
2022/01/30 11:04:25;;;;;;;30.13;5.30;;;;;;;7.41;68.26;103079.81;5026322;28;20140;-64
2022/01/30 11:06:52;;;;;;;30.38;6.15;;;;;;;7.42;67.17;103070.09;5031954;28;20691;-65
2022/01/30 11:09:24;;;;;;;25.35;5.57;;;;;;;7.42;65.56;103070.09;5029902;28;20030;-66
2022/01/30 11:11:54;;;;;;;26.92;5.25;;;;;;;7.38;65.54;103063.16;5039231;28;20124;-66
2022/01/30 11:14:23;;;;;;;32.65;5.55;;;;;;;7.34;65.12;103057.06;5028614;28;20049;-66
2022/01/30 11:19:38;;;;;;;29.85;5.60;;;;;;;7.41;66.70;103048.09;5034695;28;20598;-66
2022/01/30 11:22:06;;;;;;;21.73;4.38;;;;;;;7.40;65.96;103043.69;5028737;28;20121;-65
2022/01/30 11:24:47;;;;;;;26.05;5.68;;;;;;;7.48;66.21;103050.56;5042725;28;20518;-66
2022/01/30 11:27:18;;;;;;;24.60;5.55;;;;;;;7.58;66.85;103055.53;5023716;28;20041;-66
2022/01/30 11:29:45;;;;;;;25.55;5.72;;;;;;;7.68;64.62;103052.63;5032852;28;20093;-66
2022/01/30 11:32:11;;;;;;;23.70;5.55;;;;;;;7.76;65.04;103034.72;5037181;28;20570;-66
2022/01/30 11:34:38;;;;;;;21.33;5.60;;;;;;;7.80;63.77;103041.69;5042338;28;20025;-66
2022/01/30 11:37:05;;;;;;;26.08;5.32;;;;;;;7.82;64.27;103039.00;5023323;28;20042;-66
2022/01/30 11:39:32;;;;;;;30.90;6.05;;;;;;;7.83;63.36;103040.72;5019209;28;20021;-66
2022/01/30 11:42:18;;;;;;;21.10;4.80;;;;;;;7.87;65.29;103045.88;5017801;28;20069;-66
2022/01/30 11:44:45;;;;;;;25.48;4.72;;;;;;;7.83;61.99;103033.66;5019985;28;20112;-65
2022/01/30 11:47:10;;;;;;;29.65;5.30;;;;;;;7.81;61.76;103032.84;5020964;28;20128;-67
2022/01/30 11:49:41;;;;;;;27.43;5.07;;;;;;;7.84;62.52;103034.53;5022776;28;20133;-66
2022/01/30 11:52:09;;;;;;;26.55;5.25;;;;;;;7.94;61.96;103026.28;5015034;28;20065;-66
2022/01/30 11:54:42;;;;;;;23.77;4.78;;;;;;;8.03;62.93;103026.91;5042076;28;20056;-66
2022/01/30 11:57:20;;;;;;;25.92;4.70;;;;;;;8.10;63.66;103026.66;5041277;28;20041;-66
2022/01/30 11:59:51;;;;;;;27.30;5.47;;;;;;;8.16;61.78;103025.63;5050872;28;20429;-65
2022/01/30 12:02:27;;;;;;;23.83;4.80;;;;;;;8.25;61.45;103022.66;5035595;28;20040;-66
2022/01/30 12:05:09;;;;;;;21.35;4.50;;;;;;;8.34;61.15;103032.97;5050962;28;20395;-65
2022/01/30 12:07:41;;;;;;;21.85;5.25;;;;;;;8.39;60.97;103019.56;5033020;28;20361;-65
2022/01/30 12:10:15;;;;;;;24.42;4.88;;;;;;;8.43;60.93;103023.88;5019429;28;20029;-65
2022/01/30 12:12:49;;;;;;;27.23;5.25;;;;;;;8.45;61.40;103029.13;5023527;28;20037;-65
2022/01/30 12:15:34;;;;;;;21.92;4.55;;;;;;;8.47;62.19;103016.69;5020510;28;20030;-66
2022/01/30 12:18:00;;;;;;;23.60;4.88;;;;;;;8.40;58.96;103016.00;5016075;28;20103;-67
2022/01/30 12:20:27;;;;;;;22.50;4.80;;;;;;;8.42;60.01;103014.16;5026740;28;20401;-65
2022/01/30 12:22:55;;;;;;;16.95;4.45;;;;;;;8.47;59.09;103019.34;5020264;28;20120;-66
2022/01/30 12:25:25;;;;;;;26.42;5.03;;;;;;;8.55;60.17;103017.31;5017986;28;20024;-66
2022/01/30 12:27:55;;;;;;;29.63;5.07;;;;;;;8.59;58.33;103013.63;5015271;28;20444;-66